createdAt,value
2018-03-23T00:01:18.412Z,30.23
2018-03-23T00:03:45.932Z,30.50
2018-03-23T00:06:13.487Z,28.60
2018-03-23T00:08:41.021Z,24.20
2018-03-23T00:11:08.524Z,30.07
2018-03-23T00:13:36.040Z,27.77
2018-03-23T00:16:03.566Z,25.03
2018-03-23T00:18:31.103Z,30.30
2018-03-23T00:20:58.616Z,27.80
2018-03-23T00:23:26.190Z,29.23
2018-03-23T00:25:53.733Z,25.53
2018-03-23T00:28:21.279Z,27.13
2018-03-23T00:30:48.830Z,30.13
2018-03-23T00:33:16.407Z,30.70
2018-03-23T00:35:43.909Z,29.87
2018-03-23T00:38:11.424Z,28.70
2018-03-23T00:40:38.942Z,27.87
2018-03-23T00:43:06.479Z,34.33
2018-03-23T00:45:34.002Z,30.63
2018-03-23T00:48:01.498Z,27.70
2018-03-23T00:50:29.109Z,28.40
2018-03-23T00:52:56.667Z,33.10
2018-03-23T00:55:24.243Z,30.17
2018-03-23T00:57:51.766Z,29.17
2018-03-23T01:00:19.283Z,30.97
2018-03-23T01:02:46.778Z,27.93
2018-03-23T01:05:14.301Z,27.63
2018-03-23T01:07:41.845Z,26.10
2018-03-23T01:10:09.380Z,27.23
2018-03-23T01:12:36.889Z,26.47
2018-03-23T01:15:04.380Z,27.90
2018-03-23T01:17:31.921Z,27.60
2018-03-23T01:19:59.457Z,27.87
2018-03-23T01:22:27.004Z,26.43
2018-03-23T01:24:54.561Z,26.17
2018-03-23T01:27:22.058Z,24.43
2018-03-23T01:29:49.638Z,26.70
2018-03-23T01:32:17.163Z,27.80
2018-03-23T01:34:44.663Z,28.37
2018-03-23T01:37:12.180Z,29.10
2018-03-23T01:39:39.673Z,26.10
2018-03-23T01:42:07.190Z,27.30
2018-03-23T01:44:34.739Z,24.87
2018-03-23T01:47:02.281Z,27.80
2018-03-23T01:49:29.805Z,27.60
2018-03-23T01:51:57.352Z,26.40
2018-03-23T01:54:24.985Z,26.10
2018-03-23T01:56:52.491Z,29.93
2018-03-23T01:59:20.009Z,28.03
2018-03-23T02:01:47.566Z,26.83
2018-03-23T02:04:15.077Z,28.50
2018-03-23T02:06:42.582Z,26.20
2018-03-23T02:09:10.156Z,26.30
2018-03-23T02:11:37.664Z,26.87
2018-03-23T02:14:05.184Z,26.20
2018-03-23T02:16:32.742Z,28.10
2018-03-23T02:19:00.281Z,28.00
2018-03-23T02:21:27.790Z,28.57
2018-03-23T02:23:55.327Z,26.40
2018-03-23T02:26:22.868Z,24.00
2018-03-23T02:28:50.391Z,25.33
2018-03-23T02:31:17.919Z,28.17
2018-03-23T02:33:45.441Z,26.83
2018-03-23T02:36:12.979Z,25.77
2018-03-23T02:38:40.512Z,27.87
2018-03-23T02:41:08.022Z,27.70
2018-03-23T02:43:35.546Z,29.20
2018-03-23T02:46:03.075Z,29.73
2018-03-23T02:48:30.749Z,31.30
2018-03-23T02:50:58.245Z,29.00
2018-03-23T02:53:25.792Z,29.97
2018-03-23T02:55:53.323Z,30.33
2018-03-23T02:58:20.826Z,28.80
2018-03-23T03:00:48.344Z,24.10
2018-03-23T03:03:15.845Z,25.10
2018-03-23T03:05:43.387Z,29.10
2018-03-23T03:08:10.954Z,29.40
2018-03-23T03:10:38.471Z,25.77
2018-03-23T03:13:06.008Z,26.43
2018-03-23T03:15:33.519Z,27.87
2018-03-23T03:18:01.033Z,27.70
2018-03-23T03:20:28.525Z,26.97
2018-03-23T03:22:56.062Z,29.80
2018-03-23T03:25:23.592Z,27.10
2018-03-23T03:27:51.215Z,25.63
2018-03-23T03:30:18.730Z,28.27
2018-03-23T03:32:46.250Z,29.30
2018-03-23T03:35:13.774Z,27.27
2018-03-23T03:37:41.285Z,28.57
2018-03-23T03:40:08.855Z,29.27
2018-03-23T03:42:36.378Z,28.47
2018-03-23T03:45:03.877Z,28.77
2018-03-23T03:47:31.402Z,29.30
2018-03-23T03:49:58.916Z,26.70
2018-03-23T03:52:26.449Z,25.67
2018-03-23T03:54:53.949Z,31.03
2018-03-23T03:57:21.471Z,29.43
2018-03-23T03:59:48.992Z,29.70
2018-03-23T04:02:16.943Z,28.77
2018-03-23T04:04:44.440Z,29.10
2018-03-23T04:07:12.005Z,26.73
2018-03-23T04:09:39.504Z,27.37
2018-03-23T04:12:07.071Z,27.97
2018-03-23T04:14:34.626Z,25.13
2018-03-23T04:17:02.214Z,27.00
2018-03-23T04:19:29.720Z,29.33
2018-03-23T04:21:57.236Z,28.67
2018-03-23T04:24:25.056Z,29.07
2018-03-23T04:26:52.612Z,26.87
2018-03-23T04:29:20.111Z,27.20
2018-03-23T04:31:47.625Z,26.43
2018-03-23T04:34:15.120Z,28.73
2018-03-23T04:36:42.639Z,29.57
2018-03-23T04:39:10.150Z,28.43
2018-03-23T04:41:37.658Z,28.37
2018-03-23T04:44:05.161Z,30.10
2018-03-23T04:46:32.692Z,28.93
2018-03-23T04:49:00.220Z,29.07
2018-03-23T04:51:27.731Z,29.03
2018-03-23T04:53:55.225Z,28.67
2018-03-23T04:56:22.791Z,30.50
2018-03-23T04:58:50.290Z,28.13
2018-03-23T05:01:17.803Z,32.23
2018-03-23T05:03:45.327Z,29.67
2018-03-23T05:06:12.852Z,29.07
2018-03-23T05:08:40.360Z,29.07
2018-03-23T05:11:07.872Z,28.77
2018-03-23T05:13:35.381Z,30.57
2018-03-23T05:16:02.900Z,29.67
2018-03-23T05:18:30.418Z,30.03
2018-03-23T05:20:57.945Z,31.70
2018-03-23T05:23:26.380Z,32.00
2018-03-23T05:25:53.904Z,29.63
2018-03-23T05:28:21.397Z,33.33
2018-03-23T05:30:48.914Z,28.47
2018-03-23T05:33:16.413Z,30.13
2018-03-23T05:35:43.933Z,27.40
2018-03-23T05:38:11.419Z,27.20
2018-03-23T05:40:39.016Z,33.70
2018-03-23T05:43:06.471Z,28.30
2018-03-23T05:45:34.011Z,25.33
2018-03-23T05:48:01.571Z,24.23
2018-03-23T05:50:29.109Z,24.27
2018-03-23T05:52:56.601Z,21.40
2018-03-23T05:55:25.064Z,23.80
2018-03-23T05:57:53.004Z,24.07
2018-03-23T06:00:20.522Z,21.90
2018-03-23T06:02:48.049Z,26.13
2018-03-23T06:05:15.570Z,24.00
2018-03-23T06:07:43.094Z,23.97
2018-03-23T06:10:10.591Z,23.43
2018-03-23T06:12:38.113Z,22.97
2018-03-23T06:15:05.639Z,23.20
2018-03-23T06:17:33.175Z,22.17
2018-03-23T06:20:00.685Z,22.77
2018-03-23T06:22:28.214Z,22.03
2018-03-23T06:24:55.751Z,20.90
2018-03-23T06:27:23.289Z,20.33
2018-03-23T06:29:50.822Z,23.27
2018-03-23T06:32:18.352Z,18.37
2018-03-23T06:34:45.972Z,18.80
2018-03-23T06:37:13.479Z,20.90
2018-03-23T06:39:41.008Z,17.57
2018-03-23T06:42:08.529Z,16.00
2018-03-23T06:44:36.043Z,19.37
2018-03-23T06:47:03.634Z,14.10
2018-03-23T06:49:31.156Z,14.80
2018-03-23T06:51:58.679Z,15.73
2018-03-23T06:54:26.189Z,17.77
2018-03-23T06:56:53.719Z,15.03
2018-03-23T06:59:21.247Z,15.60
2018-03-23T07:01:48.779Z,17.07
2018-03-23T07:04:16.282Z,13.83
2018-03-23T07:06:43.793Z,16.13
2018-03-23T07:09:11.322Z,15.50
2018-03-23T07:11:38.832Z,16.07
2018-03-23T07:14:06.369Z,15.63
2018-03-23T07:16:33.875Z,13.17
2018-03-23T07:19:01.381Z,16.03
2018-03-23T07:21:28.890Z,15.93
2018-03-23T07:23:56.403Z,15.83
2018-03-23T07:26:23.930Z,20.50
2018-03-23T07:28:51.431Z,16.67
2018-03-23T07:31:18.931Z,15.97
2018-03-23T07:33:46.446Z,18.17
2018-03-23T07:36:13.949Z,16.43
2018-03-23T07:38:41.459Z,22.93
2018-03-23T07:41:08.971Z,17.70
2018-03-23T07:43:36.456Z,25.03
2018-03-23T07:46:04.017Z,19.23
2018-03-23T07:48:31.568Z,16.57
2018-03-23T07:50:59.088Z,20.17
2018-03-23T07:53:26.617Z,18.93
2018-03-23T07:55:54.260Z,22.53
2018-03-23T07:58:21.771Z,20.27
2018-03-23T08:00:49.288Z,23.17
2018-03-23T08:03:16.823Z,21.50
2018-03-23T08:05:44.320Z,17.57
2018-03-23T08:08:11.837Z,16.17
2018-03-23T08:10:39.353Z,17.83
2018-03-23T08:13:06.863Z,16.47
2018-03-23T08:15:34.422Z,17.37
2018-03-23T08:18:01.943Z,16.07
2018-03-23T08:20:29.455Z,16.53
2018-03-23T08:22:56.995Z,20.63
2018-03-23T08:25:25.115Z,17.97
2018-03-23T08:27:52.647Z,14.13
2018-03-23T08:30:20.192Z,15.97
2018-03-23T08:32:47.718Z,18.90
2018-03-23T08:35:15.223Z,15.93
2018-03-23T08:37:42.735Z,15.80
2018-03-23T08:40:10.231Z,15.97
2018-03-23T08:42:37.736Z,16.83
2018-03-23T08:45:05.268Z,16.53
2018-03-23T08:47:32.780Z,19.87
2018-03-23T08:50:00.315Z,16.00
2018-03-23T08:52:27.840Z,18.03
2018-03-23T08:54:55.361Z,14.40
2018-03-23T08:57:22.853Z,14.67
2018-03-23T08:59:50.426Z,16.23
2018-03-23T09:02:17.959Z,15.10
2018-03-23T09:04:45.471Z,17.87
2018-03-23T09:07:13.157Z,14.73
2018-03-23T09:09:40.704Z,17.53
2018-03-23T09:12:08.288Z,15.50
2018-03-23T09:14:35.775Z,14.07
2018-03-23T09:17:03.280Z,14.90
2018-03-23T09:19:30.783Z,14.20
2018-03-23T09:21:58.327Z,15.27
2018-03-23T09:24:25.960Z,14.27
2018-03-23T09:26:53.484Z,13.77
2018-03-23T09:29:21.022Z,11.23
2018-03-23T09:31:48.512Z,11.90
2018-03-23T09:34:16.005Z,13.13
2018-03-23T09:36:43.513Z,12.33
2018-03-23T09:39:11.023Z,14.40
2018-03-23T09:41:38.544Z,13.67
2018-03-23T09:44:06.081Z,13.27
2018-03-23T09:46:33.684Z,17.70
2018-03-23T09:49:01.192Z,13.03
2018-03-23T09:51:28.738Z,16.37
2018-03-23T09:53:56.280Z,13.77
2018-03-23T09:56:23.789Z,17.40
2018-03-23T09:58:51.276Z,12.30
2018-03-23T10:01:18.756Z,14.23
2018-03-23T10:03:46.383Z,12.87
2018-03-23T10:06:13.956Z,14.60
2018-03-23T10:08:41.485Z,12.63
2018-03-23T10:11:09.032Z,13.40
2018-03-23T10:13:36.526Z,11.70
2018-03-23T10:16:04.036Z,12.47
2018-03-23T10:18:31.617Z,11.57
2018-03-23T10:20:59.213Z,13.17
2018-03-23T10:23:26.699Z,11.40
2018-03-23T10:25:54.211Z,12.50
2018-03-23T10:28:21.732Z,12.73
2018-03-23T10:30:49.312Z,11.53
2018-03-23T10:33:16.816Z,12.90
2018-03-23T10:35:44.320Z,10.80
2018-03-23T10:38:11.832Z,11.03
2018-03-23T10:40:39.316Z,10.63
2018-03-23T10:43:06.848Z,11.83
2018-03-23T10:45:34.379Z,12.57
2018-03-23T10:48:01.878Z,14.87
2018-03-23T10:50:29.436Z,15.30
2018-03-23T10:52:56.951Z,14.17
2018-03-23T10:55:24.589Z,17.13
2018-03-23T10:57:52.181Z,16.63
2018-03-23T11:00:25.210Z,16.00
2018-03-23T11:02:54.724Z,15.80
2018-03-23T11:05:22.260Z,17.60
2018-03-23T11:07:49.770Z,15.33
2018-03-23T11:10:17.279Z,15.67
2018-03-23T11:12:44.823Z,18.17
2018-03-23T11:15:12.370Z,17.07
2018-03-23T11:17:39.924Z,21.37
2018-03-23T11:20:07.471Z,15.23
2018-03-23T11:22:34.965Z,18.57
2018-03-23T11:25:02.484Z,16.80
2018-03-23T11:27:30.039Z,14.13
2018-03-23T11:29:57.530Z,16.73
2018-03-23T11:32:25.103Z,15.73
2018-03-23T11:34:52.650Z,18.50
2018-03-23T11:37:20.168Z,16.20
2018-03-23T11:39:47.698Z,15.20
2018-03-23T11:42:15.292Z,13.60
2018-03-23T11:44:42.832Z,13.87
2018-03-23T11:47:10.355Z,15.27
2018-03-23T11:49:37.973Z,16.03
2018-03-23T11:52:05.671Z,16.23
2018-03-23T11:54:33.209Z,15.30
2018-03-23T11:57:00.992Z,19.17
2018-03-23T11:59:28.530Z,18.03
2018-03-23T12:01:56.063Z,14.47
2018-03-23T12:04:23.573Z,13.70
2018-03-23T12:06:51.101Z,16.33
2018-03-23T12:09:18.605Z,14.23
2018-03-23T12:11:46.128Z,14.67
2018-03-23T12:14:14.382Z,16.43
2018-03-23T12:16:41.930Z,14.70
2018-03-23T12:19:09.636Z,15.10
2018-03-23T12:21:37.125Z,17.87
2018-03-23T12:24:04.645Z,14.83
2018-03-23T12:26:32.144Z,17.17
2018-03-23T12:28:59.634Z,15.50
2018-03-23T12:31:27.160Z,14.77
2018-03-23T12:33:54.646Z,16.10
2018-03-23T12:36:22.194Z,11.70
2018-03-23T12:38:49.716Z,14.60
2018-03-23T12:41:17.209Z,14.97
2018-03-23T12:43:44.708Z,13.67
2018-03-23T12:46:12.481Z,12.27
2018-03-23T12:48:40.008Z,15.57
2018-03-23T12:51:08.363Z,11.77
2018-03-23T12:53:35.876Z,13.60
2018-03-23T12:56:03.376Z,14.13
2018-03-23T12:58:30.912Z,14.87
2018-03-23T13:00:58.463Z,18.20
2018-03-23T13:03:25.979Z,16.47
2018-03-23T13:05:53.823Z,19.50
2018-03-23T13:08:22.031Z,16.63
2018-03-23T13:10:49.964Z,15.57
2018-03-23T13:13:17.504Z,17.00
2018-03-23T13:15:45.007Z,15.90
2018-03-23T13:18:12.588Z,17.37
2018-03-23T13:20:40.131Z,17.83
2018-03-23T13:23:07.872Z,18.73
2018-03-23T13:25:35.367Z,16.90
2018-03-23T13:28:03.701Z,17.53
2018-03-23T13:30:31.222Z,18.57
2018-03-23T13:32:58.735Z,15.37
2018-03-23T13:35:26.252Z,14.90
2018-03-23T13:37:53.755Z,15.23
2018-03-23T13:40:21.248Z,15.97
2018-03-23T13:42:48.767Z,15.70
2018-03-23T13:45:16.312Z,14.97
2018-03-23T13:47:43.823Z,14.73
2018-03-23T13:50:11.380Z,15.97
2018-03-23T13:52:39.430Z,14.00
2018-03-23T13:55:06.950Z,14.33
2018-03-23T13:57:34.471Z,13.87
2018-03-23T14:00:01.990Z,16.90
2018-03-23T14:02:30.312Z,13.80
2018-03-23T14:04:57.748Z,15.00
2018-03-23T14:07:25.267Z,14.63
2018-03-23T14:09:53.078Z,17.50
2018-03-23T14:12:20.584Z,13.77
2018-03-23T14:14:48.092Z,15.67
2018-03-23T14:17:15.617Z,14.80
2018-03-23T14:19:43.139Z,14.53
2018-03-23T14:22:10.650Z,16.50
2018-03-23T14:24:38.174Z,18.73
2018-03-23T14:27:05.677Z,14.23
2018-03-23T14:29:33.206Z,11.57
2018-03-23T14:32:00.730Z,14.60
2018-03-23T14:34:28.327Z,17.50
2018-03-23T14:36:55.835Z,15.83
2018-03-23T14:39:23.367Z,17.27
2018-03-23T14:41:51.701Z,17.47
2018-03-23T14:44:19.560Z,17.23
2018-03-23T14:46:47.071Z,19.27
2018-03-23T14:49:14.603Z,19.53
2018-03-23T14:51:42.089Z,18.30
2018-03-23T14:54:09.656Z,18.40
2018-03-23T14:56:37.266Z,22.43
2018-03-23T14:59:10.350Z,20.57
2018-03-23T15:01:37.829Z,21.53
2018-03-23T15:04:05.393Z,19.13
2018-03-23T15:06:35.190Z,19.50
2018-03-23T15:09:02.740Z,20.80
2018-03-23T15:11:30.978Z,25.23
2018-03-23T15:14:10.939Z,28.07
2018-03-23T15:16:38.463Z,28.73
2018-03-23T15:19:05.960Z,31.30
2018-03-23T15:21:35.138Z,27.10
2018-03-23T15:24:02.939Z,27.57
2018-03-23T15:26:34.621Z,23.20
2018-03-23T15:29:05.345Z,30.83
2018-03-23T15:31:32.892Z,26.33
2018-03-23T15:34:09.777Z,26.10
2018-03-23T15:36:42.059Z,29.57
2018-03-23T15:39:09.687Z,27.30
2018-03-23T15:41:37.182Z,28.90
2018-03-23T15:44:04.693Z,30.50
2018-03-23T15:46:33.109Z,27.77
2018-03-23T15:49:00.689Z,31.23
2018-03-23T15:51:28.256Z,29.70
2018-03-23T15:53:55.733Z,28.03
2018-03-23T15:56:23.294Z,28.20
2018-03-23T15:58:51.800Z,27.87
2018-03-23T16:01:19.312Z,31.70
2018-03-23T16:03:47.048Z,31.27
2018-03-23T16:06:15.990Z,31.73
2018-03-23T16:08:45.544Z,29.13
2018-03-23T16:11:15.653Z,30.00
2018-03-23T16:13:43.204Z,29.40
2018-03-23T16:16:11.555Z,28.57
2018-03-23T16:18:39.093Z,31.13
2018-03-23T16:21:06.606Z,28.83
2018-03-23T16:23:34.127Z,31.93
2018-03-23T16:26:01.645Z,30.63
2018-03-23T16:28:30.860Z,27.77
2018-03-23T16:30:59.025Z,28.27
2018-03-23T16:33:26.607Z,31.07
2018-03-23T16:35:54.130Z,28.53
2018-03-23T16:38:21.644Z,28.77
2018-03-23T16:40:51.148Z,29.47
2018-03-23T16:43:18.895Z,31.30
2018-03-23T16:45:46.415Z,28.63
2018-03-23T16:48:13.925Z,30.20
2018-03-23T16:50:41.443Z,28.30
2018-03-23T16:53:08.985Z,27.83
2018-03-23T16:55:36.591Z,25.57
2018-03-23T16:58:04.096Z,26.97
2018-03-23T17:00:31.677Z,28.90
2018-03-23T17:02:59.272Z,28.87
2018-03-23T17:05:31.037Z,26.97
2018-03-23T17:08:00.934Z,30.50
2018-03-23T17:10:28.495Z,28.17
2018-03-23T17:12:56.222Z,27.17
2018-03-23T17:15:23.818Z,28.93
2018-03-23T17:17:51.321Z,29.57
2018-03-23T17:20:19.470Z,27.17
2018-03-23T17:22:47.025Z,28.73
2018-03-23T17:25:14.632Z,25.07
2018-03-23T17:27:42.220Z,29.63
2018-03-23T17:30:10.130Z,19.90
2018-03-23T17:32:37.668Z,20.93
2018-03-23T17:35:05.165Z,20.30
2018-03-23T17:37:32.718Z,18.87
2018-03-23T17:40:00.223Z,16.30
2018-03-23T17:42:27.748Z,22.67
2018-03-23T17:44:55.240Z,18.80
2018-03-23T17:47:22.752Z,19.90
2018-03-23T17:49:50.261Z,16.87
2018-03-23T17:52:18.431Z,15.87
2018-03-23T17:54:46.242Z,19.43
2018-03-23T17:57:16.141Z,16.77
2018-03-23T17:59:44.374Z,15.23
2018-03-23T18:02:12.357Z,19.13
2018-03-23T18:04:40.157Z,17.03
2018-03-23T18:07:07.818Z,21.43
2018-03-23T18:09:35.331Z,20.63
2018-03-23T18:12:02.875Z,20.97
2018-03-23T18:14:32.995Z,19.47
2018-03-23T18:17:00.627Z,19.97
2018-03-23T18:19:28.159Z,21.47
2018-03-23T18:21:55.894Z,22.40
2018-03-23T18:24:23.405Z,21.57
2018-03-23T18:26:50.981Z,21.03
2018-03-23T18:29:18.494Z,21.43
2018-03-23T18:31:46.008Z,19.93
2018-03-23T18:34:13.522Z,19.47
2018-03-23T18:36:41.142Z,21.00
2018-03-23T18:39:08.631Z,19.53
2018-03-23T18:41:36.190Z,20.17
2018-03-23T18:44:05.764Z,18.00
2018-03-23T18:46:34.294Z,18.40
2018-03-23T18:49:01.797Z,19.77
2018-03-23T18:51:29.298Z,19.53
2018-03-23T18:53:56.816Z,16.47
2018-03-23T18:56:24.348Z,21.10
2018-03-23T18:58:51.856Z,17.53
2018-03-23T19:01:19.431Z,18.40
2018-03-23T19:03:47.776Z,17.63
2018-03-23T19:06:15.361Z,15.20
2018-03-23T19:08:42.866Z,19.33
2018-03-23T19:11:10.428Z,16.80
2018-03-23T19:13:37.970Z,18.23
2018-03-23T19:16:05.634Z,16.27
2018-03-23T19:18:33.344Z,15.33
2018-03-23T19:21:01.005Z,14.67
2018-03-23T19:23:29.486Z,14.67
2018-03-23T19:25:57.003Z,12.00
2018-03-23T19:28:25.481Z,14.00
2018-03-23T19:30:53.354Z,11.53
2018-03-23T19:33:20.899Z,10.13
2018-03-23T19:35:48.446Z,11.43
2018-03-23T19:38:16.018Z,11.03
2018-03-23T19:40:43.534Z,11.40
2018-03-23T19:43:11.070Z,10.73
2018-03-23T19:45:38.856Z,11.03
2018-03-23T19:48:06.501Z,12.00
2018-03-23T19:50:34.090Z,13.93
2018-03-23T19:53:01.812Z,11.73
2018-03-23T19:55:29.463Z,12.17
2018-03-23T19:57:57.028Z,11.63
2018-03-23T20:00:24.621Z,10.80
2018-03-23T20:02:52.205Z,12.10
2018-03-23T20:05:19.837Z,11.97
2018-03-23T20:07:47.441Z,12.53
2018-03-23T20:10:14.904Z,11.73
2018-03-23T20:12:42.500Z,12.47
2018-03-23T20:15:10.037Z,12.63
2018-03-23T20:17:43.095Z,13.43
2018-03-23T20:20:16.226Z,12.47
2018-03-23T20:22:43.844Z,14.70
2018-03-23T20:25:11.398Z,14.23
2018-03-23T20:27:44.534Z,14.07
2018-03-23T20:30:12.046Z,18.73
2018-03-23T20:32:39.695Z,18.83
2018-03-23T20:35:07.239Z,18.13
2018-03-23T20:37:34.812Z,17.97
2018-03-23T20:40:05.721Z,18.57
2018-03-23T20:42:33.369Z,18.17
2018-03-23T20:45:00.943Z,17.93
2018-03-23T20:47:28.446Z,16.63
2018-03-23T20:49:59.927Z,19.60
2018-03-23T20:52:27.487Z,21.13
2018-03-23T20:54:55.799Z,18.67
2018-03-23T20:57:23.370Z,19.77
2018-03-23T20:59:51.002Z,20.33
2018-03-23T21:02:18.536Z,19.03
2018-03-23T21:04:46.051Z,22.57
2018-03-23T21:07:13.777Z,23.93
2018-03-23T21:09:41.389Z,20.63
2018-03-23T21:12:09.071Z,20.33
2018-03-23T21:14:36.658Z,24.20
2018-03-23T21:17:04.277Z,21.77
2018-03-23T21:19:31.863Z,25.57
2018-03-23T21:21:59.471Z,28.40
2018-03-23T21:24:27.081Z,25.33
2018-03-23T21:26:54.661Z,28.17
2018-03-23T21:29:22.347Z,24.40
2018-03-23T21:31:51.743Z,26.80
2018-03-23T21:34:19.285Z,28.53
2018-03-23T21:36:46.924Z,26.07
2018-03-23T21:39:14.637Z,25.00
2018-03-23T21:41:42.208Z,24.83
2018-03-23T21:44:09.943Z,26.73
2018-03-23T21:46:37.500Z,28.83
2018-03-23T21:49:05.022Z,26.80
2018-03-23T21:51:32.722Z,29.03
2018-03-23T21:54:00.259Z,22.63
2018-03-23T21:56:28.017Z,24.83
2018-03-23T21:58:55.635Z,24.40
2018-03-23T22:01:23.332Z,26.30
2018-03-23T22:03:50.831Z,26.07
2018-03-23T22:06:18.447Z,29.20
2018-03-23T22:08:46.930Z,23.37
2018-03-23T22:11:14.479Z,25.83
2018-03-23T22:13:41.973Z,30.73
2018-03-23T22:16:09.564Z,27.27
2018-03-23T22:18:37.147Z,24.30
2018-03-23T22:21:04.729Z,26.30
2018-03-23T22:23:32.273Z,23.90
2018-03-23T22:25:59.836Z,28.00
2018-03-23T22:28:27.619Z,24.63
2018-03-23T22:30:55.170Z,29.57
2018-03-23T22:33:23.430Z,30.13
2018-03-23T22:35:50.992Z,27.93
2018-03-23T22:38:18.564Z,29.87
2018-03-23T22:40:46.207Z,28.20
2018-03-23T22:43:14.550Z,25.33
2018-03-23T22:45:42.081Z,28.07
2018-03-23T22:48:09.574Z,27.93
2018-03-23T22:50:37.850Z,24.93
2018-03-23T22:53:05.441Z,29.17
2018-03-23T22:55:33.013Z,28.37
2018-03-23T22:58:00.564Z,27.33
2018-03-23T23:00:28.225Z,30.40
2018-03-23T23:02:55.774Z,30.33
2018-03-23T23:05:23.312Z,29.27
2018-03-23T23:07:50.858Z,35.33
2018-03-23T23:10:19.549Z,30.13
2018-03-23T23:12:47.318Z,29.67
2018-03-23T23:15:14.968Z,29.73
2018-03-23T23:17:42.570Z,28.87
2018-03-23T23:20:10.160Z,31.27
2018-03-23T23:22:37.681Z,30.07
2018-03-23T23:25:05.207Z,34.70
2018-03-23T23:27:32.900Z,31.17
2018-03-23T23:30:00.432Z,34.27
2018-03-23T23:32:28.104Z,36.20
2018-03-23T23:34:55.745Z,31.97
2018-03-23T23:37:23.549Z,32.73
2018-03-23T23:39:51.072Z,35.37
2018-03-23T23:42:18.789Z,36.43
2018-03-23T23:44:46.457Z,31.03
2018-03-23T23:47:13.953Z,33.77
2018-03-23T23:49:41.835Z,36.00
2018-03-23T23:52:09.569Z,36.07
2018-03-23T23:54:37.143Z,37.00
2018-03-23T23:57:04.640Z,37.87
2018-03-23T23:59:32.406Z,35.43
